Flight Track Log - Related Links

Times and Time Zones

All times are in EDT time to prevent confusion due to time zone crossing. See the CSC8977 flight status page for this flight to view local times or setup timezone preferences in your user account.

Time Position Orientation Groundspeed Altitude Reporting Facility
EDT Latitude Longitude Course Direction KTS MPH feet Rate Location/Type
Mon 01:55:00 AM 30.3327 104.9781 105° East  Level Estimated
Mon 01:56:00 AM 30.3049 105.0924 106° East  Level Estimated
Mon 01:57:00 AM 30.2770 105.2066 106° East  Level Estimated
Mon 01:58:00 AM 30.2490 105.3207 106° East  Level Estimated
Mon 01:59:00 AM 30.2209 105.4347 106° East  Level Estimated
Mon 02:00:00 AM 30.1927 105.5487 106° East  Level Estimated
Mon 02:01:00 AM 30.1644 105.6626 106° East  Level Estimated
Mon 02:02:00 AM 30.1360 105.7764 106° East  Level Estimated
Mon 02:03:00 AM 30.1075 105.8902 106° East  Level Estimated
Mon 02:04:00 AM 30.0788 106.0039 106° East  Level Estimated
Mon 02:05:00 AM 30.0501 106.1176 106° East  Level Estimated
Mon 02:06:00 AM 30.0214 106.2312 106° East  Level Estimated
Mon 02:07:00 AM 29.9925 106.3447 106° East  Level Estimated
Mon 02:08:00 AM 29.9635 106.4581 106° East  Level Estimated
Mon 02:09:00 AM 29.9344 106.5715 106° East  Level Estimated
Mon 02:10:00 AM 29.9052 106.6848 107° East  Level Estimated
Mon 02:11:00 AM 29.8759 106.7981 107° East  Level Estimated
Mon 02:12:00 AM 29.8465 106.9113 107° East  Level Estimated
Mon 02:13:00 AM 29.8171 107.0244 107° East  Level Estimated
Mon 02:14:00 AM 29.7875 107.1375 107° East  Level Estimated
Mon 02:15:00 AM 29.7578 107.2504 107° East  Level Estimated
Mon 02:16:00 AM 29.7281 107.3634 107° East  Level Estimated
Mon 02:17:00 AM 29.6982 107.4762 107° East  Level Estimated
Mon 02:18:00 AM 29.6682 107.5890 107° East  Level Estimated
Mon 02:19:00 AM 29.6382 107.7017 107° East  Level Estimated
Mon 02:20:00 AM 29.6081 107.8144 107° East  Level Estimated
Mon 02:21:00 AM 29.5778 107.9269 107° East  Level Estimated
Mon 02:22:00 AM 29.5475 108.0395 107° East  Level Estimated
Mon 02:23:00 AM 29.5170 108.1519 107° East  Level Estimated
Mon 02:24:00 AM 29.4865 108.2643 107° East  Level Estimated
Mon 02:25:00 AM 29.4559 108.3766 107° East  Level Estimated
Mon 02:26:00 AM 29.4252 108.4888 107° East  Level Estimated
Mon 02:27:00 AM 29.3944 108.6010 107° East  Level Estimated
Mon 02:28:00 AM 29.3635 108.7131 108° East  Level Estimated
Mon 02:29:00 AM 29.3325 108.8252 108° East  Level Estimated
Mon 02:30:00 AM 29.3014 108.9371 108° East  Level Estimated
Mon 02:31:00 AM 29.2702 109.0490 108° East  Level Estimated
Mon 02:32:00 AM 29.2390 109.1609 108° East  Level Estimated
Mon 02:33:00 AM 29.2076 109.2726 108° East  Level Estimated
Mon 02:34:00 AM 29.1761 109.3843 108° East  Level Estimated
Mon 02:35:00 AM 29.1446 109.4960 108° East  Level Estimated
Mon 02:36:00 AM 29.1129 109.6075 108° East  Level Estimated
Mon 02:37:00 AM 29.0812 109.7190 108° East  Level Estimated
Mon 02:38:00 AM 29.0494 109.8305 108° East  Level Estimated
Mon 02:39:00 AM 29.0174 109.9418 108° East  Level Estimated
Mon 02:40:00 AM 28.9854 110.0531 108° East  Level Estimated
Mon 02:41:00 AM 28.9533 110.1643 108° East  Level Estimated
Mon 02:42:00 AM 28.9211 110.2755 108° East  Level Estimated
Mon 02:43:00 AM 28.8888 110.3865 108° East  Level Estimated
Mon 02:44:00 AM 28.8565 110.4975 108° East  Level Estimated
Mon 02:45:00 AM 28.8240 110.6085 108° East  Level Estimated
Mon 02:46:00 AM 28.7914 110.7194 109° East  Level Estimated
Mon 02:47:00 AM 28.7588 110.8301 109° East  Level Estimated
Mon 02:48:00 AM 28.7260 110.9409 109° East  Level Estimated
Mon 02:49:00 AM 28.6932 111.0516 109° East  Level Estimated
Mon 02:50:00 AM 28.6603 111.1621 109° East  Level Estimated
Mon 02:51:00 AM 28.6273 111.2727 109° East  Level Estimated
Mon 02:52:00 AM 28.5942 111.3831 109° East  Level Estimated
Mon 02:53:00 AM 28.5610 111.4935 109° East  Level Estimated
Mon 02:54:00 AM 28.5277 111.6038 109° East  Level Estimated
Mon 02:55:00 AM 28.4943 111.7141 109° East  Level Estimated
Mon 02:56:00 AM 28.4609 111.8242 109° East  Level Estimated
Mon 02:57:00 AM 28.4273 111.9343 109° East  Level Estimated
Mon 02:58:00 AM 28.3937 112.0444 109° East  Level Estimated
Mon 02:59:00 AM 28.3600 112.1544 109° East  Level Estimated
Mon 03:00:00 AM 28.3262 112.2642 109° East  Level Estimated
Mon 03:01:00 AM 28.2923 112.3741 109° East  Level Estimated
Mon 03:02:00 AM 28.2583 112.4838 109° East  Level Estimated
Mon 03:03:00 AM 28.2242 112.5935 109° East  Level Estimated
Mon 03:04:00 AM 28.1900 112.7031 109° East  Level Estimated
Mon 03:05:00 AM 28.1558 112.8127 110° East  Level Estimated
Mon 03:06:00 AM 28.1215 112.9221 110° East  Level Estimated
Mon 03:07:00 AM 28.0870 113.0315 110° East  Level Estimated
Mon 03:08:00 AM 28.0525 113.1409 110° East  Level Estimated
Mon 03:09:00 AM 28.0179 113.2502 110° East  Level Estimated
Mon 03:10:00 AM 27.9832 113.3594 110° East  Level Estimated
Mon 03:11:00 AM 27.9485 113.4685 110° East  Level Estimated
Mon 03:12:00 AM 27.9136 113.5775 110° East  Level Estimated
Mon 03:13:00 AM 27.8787 113.6865 110° East  Level Estimated
Mon 03:14:00 AM 27.8437 113.7954 110° East  Level Estimated
Mon 03:15:00 AM 27.8085 113.9043 110° East  Level Estimated
Mon 03:16:00 AM 27.7733 114.0130 110° East  Level Estimated
Mon 03:17:00 AM 27.7381 114.1217 110° East  Level Estimated
Mon 03:18:00 AM 27.7027 114.2304 110° East  Level Estimated
Mon 03:19:00 AM 27.6672 114.3389 110° East  Level Estimated
Mon 03:20:00 AM 27.6317 114.4474 110° East  Level Estimated
Mon 03:21:00 AM 27.5961 114.5558 110° East  Level Estimated
Mon 03:22:00 AM 27.5604 114.6642 110° East  Level Estimated
Mon 03:23:00 AM 27.5246 114.7725 110° East  Level Estimated
Mon 03:24:00 AM 27.4887 114.8807 110° East  Level Estimated
Mon 03:25:00 AM 27.4528 114.9888 111° Southeast  Level Estimated
Mon 03:26:00 AM 27.4167 115.0969 111° Southeast  Level Estimated
Mon 03:27:00 AM 27.3806 115.2049 111° Southeast  Level Estimated
Mon 03:28:00 AM 27.3444 115.3128 111° Southeast  Level Estimated
Mon 03:28:32 AM 22.7032 113.5753 111° Southeast 467 537 29,100  Level FlightAware ADS-B
Mon 03:36:29 AM 22.7267 114.6868 84° East 482 555 29,100  Level FlightAware ADS-B
Mon 03:37:13 AM 22.7379 114.7985 84° East 480 552 29,100  Level FlightAware ADS-B
Mon 03:38:48 AM 22.7610 115.0159 84° East 483 556 29,100 -232 Level FlightAware ADS-B
Mon 04:22:24 AM 24.3306 120.4658 46° Northeast 345 397 18,600 -253 Descending FlightAware ADS-B (KHAO)
Mon 04:23:04 AM 24.3743 120.5156 46° Northeast 325 374 17,900 -1,371 Descending FlightAware ADS-B (KHAO)
Mon 04:23:34 AM 24.4074 120.5534 46° Northeast 324 373 17,000 -1,672 Descending FlightAware ADS-B (KHAO)
Mon 04:24:05 AM 24.4391 120.5896 46° Northeast 322 371 16,200 -1,477 Descending FlightAware ADS-B (KHAO)
Mon 04:24:39 AM 24.4718 120.6268 46° Northeast 313 360 15,400 -1,292 Descending FlightAware ADS-B (KHAO)
Mon 04:25:10 AM 24.5048 120.6644 46° Northeast 306 352 14,800 -1,457 Descending FlightAware ADS-B (KHAO)
Mon 04:25:49 AM 24.5428 120.7078 46° Northeast 302 348 13,700 -1,565 Descending FlightAware ADS-B (KHAO)
Mon 04:26:19 AM 24.5715 120.7408 47° Northeast 297 342 13,000 -1,000 Descending FlightAware ADS-B (KHAO)
Mon 04:26:49 AM 24.5973 120.7718 48° Northeast 280 322 12,700 -646 Descending FlightAware ADS-B (KHAO)
Mon 04:27:24 AM 24.6274 120.8078 48° Northeast 267 307 12,300 -1,108 Descending FlightAware ADS-B (KHAO)
Mon 04:27:54 AM 24.6534 120.8387 47° Northeast 265 305 11,500 -1,000 Descending FlightAware ADS-B (KHAO)
Mon 04:28:24 AM 24.6780 120.8682 48° Northeast 260 299 11,300 -200 Descending FlightAware ADS-B (KHAO)
Mon 04:28:54 AM 24.7031 120.8982 48° Northeast 264 304 11,300  Level FlightAware ADS-B (KHAO)
Mon 04:29:24 AM 24.7282 120.9283 47° Northeast 266 306 11,300  Level FlightAware ADS-B (KHAO)
Mon 04:29:55 AM 24.7498 120.9540 48° Northeast 259 298 11,300 -98 Level FlightAware ADS-B (KHAO)
Mon 04:30:25 AM 24.7764 120.9859 48° Northeast 258 297 11,200 -360 Descending FlightAware ADS-B (KHAO)
Mon 04:31:35 AM 24.8332 121.0539 48° Northeast 252 290 10,700 -480 Descending FlightAware ADS-B (KHAO)
Mon 04:32:05 AM 24.8575 121.0830 47° Northeast 250 288 10,400 -387 Descending FlightAware ADS-B (KHAO)
Mon 04:32:37 AM 24.8825 121.1129 48° Northeast 251 289 10,300 -519 Descending FlightAware ADS-B (KHAO)
Mon 04:33:49 AM 24.9377 121.1793 48° Northeast 247 284 9,500 -755 Descending FlightAware ADS-B (KHAO)
Mon 04:35:00 AM 24.9657 121.2552 116° Southeast 238 274 8,500 -663 Descending FlightAware ADS-B (KHAO)
Mon 04:36:59 AM 24.8431 121.2247 211° Southwest 265 305 7,400 -594 Descending FlightAware ADS-B (KHAO)
Mon 04:37:00 AM 25.0396 121.4661 69° East  Level Estimated
Mon 04:38:32 AM 24.8294 121.1321 329° Northwest 265 305 6,400  Level FlightAware ADS-B (KHAO)
Mon 04:39:03 AM 24.8639 121.1397 30° Northeast 244 281 6,300 -940 Descending FlightAware ADS-B (KHAO)
Mon 04:39:55 AM 24.9136 121.1730 31° Northeast 243 280 5,100 -1,385 Descending FlightAware ADS-B (KHAO)
Mon 04:42:00 AM 25.0020 121.3873 66° East  Level Estimated
Mon 04:43:00 AM 25.0443 121.4903 66° East  Level Estimated

Login

Don't have an account? Register now (free) for customized features, flight alerts, and more!